Time;durP1;ratioP1;P1;durP2;ratioP2;P2;SDS_P1;SDS_P2;PMS_P1;PMS_P2;Temp;Humidity;BMP_temperature;BMP_pressure;BME280_temperature;BME280_humidity;BME280_pressure;Samples;Min_cycle;Max_cycle;Signal;HPM_P1;HPM_P2
2022/11/17 00:00:41;;;;;;;9.15;3.33;;;8.80;99.90;;;8.79;100.00;98379.53;4899811;29;20342;-74
2022/11/17 00:03:14;;;;;;;9.52;3.53;;;8.70;99.90;;;8.72;100.00;98381.41;4882592;29;20235;-75
2022/11/17 00:05:43;;;;;;;10.57;4.03;;;8.70;99.90;;;8.74;100.00;98370.84;4886291;29;20238;-74
2022/11/17 00:08:10;;;;;;;9.80;3.63;;;8.70;99.90;;;8.77;100.00;98362.88;4878497;29;20306;-75
2022/11/17 00:10:37;;;;;;;8.65;2.88;;;8.70;99.90;;;8.78;100.00;98362.00;4886183;29;20730;-75
2022/11/17 00:15:49;;;;;;;10.63;3.65;;;8.70;99.90;;;8.76;100.00;98342.69;4899856;29;20286;-75
2022/11/17 00:21:22;;;;;;;8.80;3.17;;;8.70;99.90;;;8.81;100.00;98347.00;4901655;29;20241;-74
2022/11/17 00:23:49;;;;;;;9.02;3.45;;;8.70;99.90;;;8.81;100.00;98349.63;4907077;29;20322;-75
2022/11/17 00:26:32;;;;;;;8.20;2.83;;;8.70;99.90;;;8.76;100.00;98343.56;4919140;28;20242;-75
2022/11/17 00:29:03;;;;;;;8.98;3.28;;;8.70;99.90;;;8.74;100.00;98339.22;4895407;29;20330;-75
2022/11/17 00:34:21;;;;;;;8.38;3.35;;;8.70;99.90;;;8.74;100.00;98336.59;4908434;29;20321;-74
2022/11/17 00:36:51;;;;;;;12.55;4.13;;;8.70;99.90;;;8.78;100.00;98333.88;4893435;29;20315;-74
2022/11/17 00:39:21;;;;;;;12.30;4.07;;;8.70;99.90;;;8.75;100.00;98328.66;4900002;29;20231;-75
2022/11/17 00:41:48;;;;;;;9.70;3.83;;;8.70;99.90;;;8.73;100.00;98321.69;4888429;28;20265;-75
2022/11/17 00:44:15;;;;;;;9.05;3.53;;;8.70;99.90;;;8.71;100.00;98311.16;4905254;29;20289;-75
2022/11/17 00:46:42;;;;;;;9.43;3.58;;;8.70;99.90;;;8.72;100.00;98312.03;4886443;29;20310;-74
2022/11/17 00:49:10;;;;;;;7.55;3.05;;;8.70;99.90;;;8.75;100.00;98304.06;4901815;29;20241;-74
2022/11/17 00:51:38;;;;;;;6.65;2.53;;;8.70;99.90;;;8.76;100.00;98306.69;4894489;29;20331;-74
2022/11/17 00:54:08;;;;;;;11.50;4.15;;;8.70;99.90;;;8.73;100.00;98297.97;4901932;29;20719;-74
2022/11/17 00:56:35;;;;;;;7.63;2.95;;;8.70;99.90;;;8.74;100.00;98284.75;4883359;29;20294;-74
2022/11/17 00:59:02;;;;;;;9.27;3.53;;;8.70;99.90;;;8.77;100.00;98278.56;4889717;29;20258;-74
2022/11/17 01:01:30;;;;;;;8.90;3.40;;;8.70;99.90;;;8.77;100.00;98282.06;4898871;29;20321;-74
2022/11/17 01:04:01;;;;;;;7.75;3.17;;;8.70;99.90;;;8.77;100.00;98282.06;4897221;29;20322;-74
2022/11/17 01:06:45;;;;;;;6.88;2.60;;;8.70;99.90;;;8.76;100.00;98279.47;4879827;29;20231;-74
2022/11/17 01:09:19;;;;;;;5.38;1.92;;;8.70;99.90;;;8.77;100.00;98275.94;4911303;29;20328;-74
2022/11/17 01:11:49;;;;;;;5.38;2.08;;;8.70;99.90;;;8.75;100.00;98268.06;4885165;29;20626;-75
2022/11/17 01:14:21;;;;;;;8.50;3.22;;;8.70;99.90;;;8.74;100.00;98260.19;4875349;29;20936;-76
2022/11/17 01:16:49;;;;;;;8.35;3.10;;;8.70;99.90;;;8.76;100.00;98253.97;4900814;29;20270;-75
2022/11/17 01:19:17;;;;;;;3.47;1.63;;;8.70;99.90;;;8.74;100.00;98232.06;4887727;28;20234;-75
2022/11/17 01:21:45;;;;;;;6.75;2.58;;;8.70;99.90;;;8.76;100.00;98237.31;4886054;29;20231;-75
2022/11/17 01:24:15;;;;;;;7.43;2.80;;;8.80;99.90;;;8.78;100.00;98231.09;4897749;29;20305;-75
2022/11/17 01:26:43;;;;;;;7.47;2.90;;;8.70;99.90;;;8.78;100.00;98225.84;4899240;29;20243;-75
2022/11/17 01:29:13;;;;;;;8.32;3.30;;;8.80;99.90;;;8.82;100.00;98224.00;4899248;29;20265;-75
2022/11/17 01:31:44;;;;;;;7.10;2.85;;;8.80;99.90;;;8.80;100.00;98216.13;4886833;29;20667;-75
2022/11/17 01:34:11;;;;;;;6.68;2.70;;;8.70;99.90;;;8.81;100.00;98222.28;4910157;29;20246;-75
2022/11/17 01:39:29;;;;;;;8.85;3.35;;;8.80;99.90;;;8.83;100.00;98216.06;4898490;28;20298;-76
2022/11/17 01:41:57;;;;;;;8.15;3.00;;;8.80;99.90;;;8.81;100.00;98217.88;4895560;29;20263;-76
2022/11/17 01:44:55;;;;;;;5.53;2.17;;;8.80;99.90;;;8.77;100.00;98208.28;4889778;29;20231;-76
2022/11/17 01:47:46;;;;;;;9.13;3.45;;;8.70;99.90;;;8.76;100.00;98198.66;4881490;29;20317;-76
2022/11/17 01:50:44;;;;;;;11.25;3.95;;;8.70;99.90;;;8.78;100.00;98191.56;4897373;29;20330;-76
2022/11/17 01:53:15;;;;;;;8.13;3.10;;;8.70;99.90;;;8.78;100.00;98190.72;4884224;29;20250;-76
2022/11/17 01:55:55;;;;;;;8.57;3.20;;;8.70;99.90;;;8.83;100.00;98173.91;4897476;29;20251;-76
2022/11/17 01:58:34;;;;;;;8.98;3.45;;;8.70;99.90;;;8.81;100.00;98173.06;4884627;29;20240;-76
2022/11/17 02:01:01;;;;;;;7.22;2.55;;;8.80;99.90;;;8.83;100.00;98173.03;4897875;29;20330;-76
2022/11/17 02:03:33;;;;;;;7.30;2.58;;;8.80;99.90;;;8.81;100.00;98172.19;4903210;29;20227;-76
2022/11/17 02:06:08;;;;;;;8.15;3.08;;;8.80;99.90;;;8.82;100.00;98155.50;4879188;29;20302;-76
2022/11/17 02:08:39;;;;;;;6.85;2.65;;;8.80;99.90;;;8.82;100.00;98160.75;4881494;29;20242;-76
2022/11/17 02:11:13;;;;;;;8.57;3.08;;;8.80;99.90;;;8.85;100.00;98156.28;4898143;29;20306;-76
2022/11/17 02:13:41;;;;;;;6.15;2.60;;;8.80;99.90;;;8.81;100.00;98148.47;4876909;29;20366;-76
2022/11/17 02:16:12;;;;;;;8.40;3.63;;;8.80;99.90;;;8.81;100.00;98140.59;4897261;29;20298;-76
2022/11/17 02:18:41;;;;;;;11.88;4.50;;;8.70;99.90;;;8.77;100.00;98138.91;4876841;29;20771;-76
2022/11/17 02:21:57;;;;;;;4.95;2.15;;;8.70;99.90;;;8.78;100.00;98141.50;4895439;29;20263;-76
2022/11/17 02:25:07;;;;;;;10.57;3.63;;;8.70;99.90;;;8.76;100.00;98143.31;4900826;29;20286;-76
2022/11/17 02:28:25;;;;;;;10.10;3.60;;;8.70;99.90;;;8.74;100.00;98150.38;4899583;29;20331;-76
2022/11/17 02:31:00;;;;;;;9.15;3.63;;;8.70;99.90;;;8.74;100.00;98149.50;4849758;29;20231;-76
2022/11/17 02:33:56;;;;;;;11.40;4.88;;;8.70;99.90;;;8.75;100.00;98151.25;4911495;28;20333;-76
2022/11/17 02:36:38;;;;;;;8.98;3.38;;;8.70;99.90;;;8.71;100.00;98141.66;4911334;29;20325;-76
2022/11/17 02:39:17;;;;;;;8.63;3.20;;;8.70;99.90;;;8.73;100.00;98150.41;4900536;29;20243;-76
2022/11/17 02:41:57;;;;;;;10.68;4.28;;;8.70;99.90;;;8.73;100.00;98142.50;4906330;29;20238;-76
2022/11/17 02:44:48;;;;;;;8.75;3.40;;;8.70;99.90;;;8.70;100.00;98143.44;4905541;29;20238;-76
2022/11/17 02:47:29;;;;;;;9.02;3.45;;;8.70;99.90;;;8.74;100.00;98141.59;4888927;29;20322;-76
2022/11/17 02:50:05;;;;;;;9.93;3.63;;;8.70;99.90;;;8.75;100.00;98157.38;4910600;29;20341;-75
2022/11/17 02:52:32;;;;;;;8.40;3.13;;;8.70;99.90;;;8.73;100.00;98145.13;4896650;29;20662;-75
2022/11/17 02:55:01;;;;;;;5.05;2.15;;;8.70;99.90;;;8.73;100.00;98132.84;4901022;29;20266;-76
2022/11/17 02:57:39;;;;;;;7.47;2.67;;;8.70;99.90;;;8.69;100.00;98139.06;4888901;29;20235;-75
2022/11/17 03:00:16;;;;;;;7.95;3.38;;;8.70;99.90;;;8.70;100.00;98146.06;4880423;29;22216;-75
2022/11/17 03:03:13;;;;;;;7.75;3.08;;;8.70;99.90;;;8.68;100.00;98157.53;4909497;29;20332;-75
2022/11/17 03:06:04;;;;;;;8.77;3.35;;;8.60;99.90;;;8.70;100.00;98156.59;4884798;29;20302;-75
2022/11/17 03:08:57;;;;;;;6.93;2.75;;;8.60;99.90;;;8.67;100.00;98135.59;4896563;29;20241;-75
2022/11/17 03:11:40;;;;;;;9.88;4.00;;;8.60;99.90;;;8.68;100.00;98142.59;4903400;29;20322;-75
2022/11/17 03:14:26;;;;;;;7.65;3.22;;;8.60;99.90;;;8.69;100.00;98168.03;4888081;29;20259;-74
2022/11/17 03:17:01;;;;;;;9.45;3.58;;;8.60;99.90;;;8.74;100.00;98182.00;4912233;29;20227;-76
2022/11/17 03:19:37;;;;;;;7.72;3.08;;;8.70;99.90;;;8.75;100.00;98167.94;4887300;29;20237;-75
2022/11/17 03:22:32;;;;;;;8.07;3.03;;;8.70;99.90;;;8.78;100.00;98170.50;4900047;29;20784;-74
2022/11/17 03:25:04;;;;;;;10.48;3.80;;;8.70;99.90;;;8.78;100.00;98154.69;4907260;29;20695;-75
2022/11/17 03:27:38;;;;;;;7.22;2.58;;;8.70;99.90;;;8.79;100.00;98147.66;4903425;29;20239;-75
2022/11/17 03:30:08;;;;;;;7.38;2.88;;;8.70;99.90;;;8.82;100.00;98137.91;4900474;29;20223;-75
2022/11/17 03:32:40;;;;;;;7.75;2.65;;;8.80;99.90;;;8.86;100.00;98147.50;4889456;29;20330;-75
2022/11/17 03:35:16;;;;;;;6.40;2.40;;;8.80;99.90;;;8.83;100.00;98139.66;4904670;29;20264;-75
2022/11/17 03:38:03;;;;;;;7.07;2.55;;;8.80;99.90;;;8.87;100.00;98136.06;4917158;29;20310;-75
2022/11/17 03:40:33;;;;;;;7.30;2.80;;;8.80;99.90;;;8.89;100.00;98146.56;4882199;29;20237;-76
2022/11/17 03:43:04;;;;;;;9.32;3.78;;;8.80;99.90;;;8.91;100.00;98148.25;4897358;29;20317;-75
2022/11/17 03:45:36;;;;;;;8.43;3.10;;;8.80;99.90;;;8.91;100.00;98148.25;4886788;29;20676;-74
2022/11/17 03:48:30;;;;;;;7.50;2.65;;;8.90;99.90;;;8.92;100.00;98149.13;4890963;28;20275;-73
2022/11/17 03:51:08;;;;;;;7.95;2.95;;;8.90;99.90;;;8.91;100.00;98163.22;4887054;28;20309;-72
2022/11/17 03:53:36;;;;;;;8.15;3.03;;;8.90;99.90;;;8.90;100.00;98156.19;4901762;29;20310;-73
2022/11/17 03:56:09;;;;;;;7.93;2.85;;;8.90;99.90;;;8.91;100.00;98147.41;4903118;29;20274;-72
2022/11/17 03:58:54;;;;;;;7.22;2.63;;;8.90;99.90;;;8.92;100.00;98165.81;4908442;28;20242;-72
2022/11/17 04:01:22;;;;;;;7.85;3.25;;;8.90;99.90;;;8.90;100.00;98164.09;4894502;29;20223;-71
2022/11/17 04:03:49;;;;;;;8.45;3.65;;;8.90;99.90;;;8.92;100.00;98159.69;4871923;29;20232;-74
2022/11/17 04:06:16;;;;;;;9.07;3.20;;;8.90;99.90;;;8.93;100.00;98169.31;4880262;29;20597;-74
2022/11/17 04:08:43;;;;;;;7.65;3.28;;;8.90;99.90;;;8.96;100.00;98163.97;4880363;29;20242;-74
2022/11/17 04:16:41;;;;;;;7.88;3.10;;;9.00;99.90;;;9.03;100.00;98164.72;4911888;29;20262;-74
2022/11/17 04:19:08;;;;;;;7.57;2.80;;;9.00;99.90;;;9.03;100.00;98157.69;4919883;29;20245;-73
2022/11/17 04:21:35;;;;;;;6.75;2.38;;;9.00;99.90;;;9.03;100.00;98162.94;4927802;29;20326;-74
2022/11/17 04:24:02;;;;;;;6.88;2.45;;;9.00;99.90;;;9.03;100.00;98164.72;4913079;29;20241;-74
2022/11/17 04:29:16;;;;;;;5.90;2.13;;;9.00;99.90;;;9.05;100.00;98162.91;4912750;29;20263;-74
2022/11/17 04:31:43;;;;;;;6.20;2.33;;;9.00;99.90;;;9.02;100.00;98153.31;4887775;29;20238;-73
2022/11/17 04:34:10;;;;;;;6.45;2.25;;;9.00;99.90;;;8.95;100.00;98147.31;4907366;29;20239;-74
2022/11/17 04:36:43;;;;;;;6.45;2.38;;;8.90;99.90;;;8.93;100.00;98137.69;4911540;29;20231;-73
2022/11/17 04:39:13;;;;;;;6.13;2.35;;;8.90;99.90;;;8.87;100.00;98138.69;4911711;29;20322;-74
2022/11/17 04:41:53;;;;;;;3.47;1.40;;;8.90;99.90;;;8.85;100.00;98139.63;4896035;29;20350;-74
2022/11/17 04:44:26;;;;;;;7.95;2.85;;;8.80;99.90;;;8.90;100.00;98129.84;4897732;29;20688;-74
2022/11/17 04:46:54;;;;;;;9.07;3.40;;;8.80;99.90;;;8.88;100.00;98135.16;4895299;29;20234;-74
2022/11/17 04:49:23;;;;;;;8.98;3.13;;;8.90;99.90;;;8.89;100.00;98123.72;4899326;29;20317;-74
2022/11/17 04:51:52;;;;;;;7.47;2.63;;;8.90;99.90;;;8.89;100.00;98136.03;4892754;29;20820;-74
2022/11/17 04:54:23;;;;;;;6.53;2.35;;;8.90;99.90;;;8.91;100.00;98131.59;4911484;29;20299;-74
2022/11/17 04:56:52;;;;;;;6.78;2.42;;;8.90;99.90;;;8.90;100.00;98133.34;4893310;29;20322;-75
2022/11/17 04:59:20;;;;;;;6.68;2.45;;;8.90;99.90;;;8.94;100.00;98131.53;4907584;29;20286;-75
2022/11/17 05:01:47;;;;;;;8.88;2.95;;;8.90;99.90;;;9.01;100.00;98148.06;4877923;29;20756;-74
2022/11/17 05:07:03;;;;;;;8.73;3.08;;;9.00;99.90;;;8.95;100.00;98128.84;4909753;29;20241;-75
2022/11/17 05:09:30;;;;;;;9.55;3.28;;;8.90;99.90;;;8.87;100.00;98109.69;4908694;29;20232;-74
2022/11/17 05:14:43;;;;;;;10.57;3.47;;;8.90;99.90;;;8.85;100.00;98108.00;4910966;29;20337;-74
2022/11/17 05:17:10;;;;;;;7.38;2.63;;;8.80;99.90;;;8.85;100.00;98110.63;4891227;28;20247;-73
2022/11/17 05:19:43;;;;;;;7.82;2.78;;;8.80;99.90;;;8.86;100.00;98110.59;4888708;29;20235;-73
2022/11/17 05:25:05;;;;;;;6.25;2.28;;;8.80;99.90;;;8.78;100.00;98109.03;4909067;29;20239;-74
2022/11/17 05:27:33;;;;;;;9.63;3.30;;;8.80;99.90;;;8.78;100.00;98106.38;4893933;29;20251;-74
2022/11/17 05:30:02;;;;;;;7.97;2.75;;;8.70;99.90;;;8.74;100.00;98102.94;4910166;29;20266;-74
2022/11/17 05:32:29;;;;;;;7.07;2.42;;;8.70;99.90;;;8.71;100.00;98104.78;4894534;29;20318;-74
2022/11/17 05:34:55;;;;;;;9.05;3.25;;;8.70;99.90;;;8.81;100.00;98123.00;4892715;29;20294;-73
2022/11/17 05:37:23;;;;;;;8.57;2.88;;;8.70;99.90;;;8.87;100.00;98137.81;4892499;29;20239;-75
2022/11/17 05:39:50;;;;;;;3.95;1.52;;;8.80;99.90;;;8.85;100.00;98129.06;4892658;29;20233;-74
2022/11/17 05:42:16;;;;;;;6.50;2.42;;;8.80;99.90;;;8.89;100.00;98114.94;4872738;29;20295;-73
2022/11/17 05:44:43;;;;;;;6.18;2.35;;;8.90;99.90;;;8.90;100.00;98112.25;4895079;29;20313;-73
2022/11/17 05:47:10;;;;;;;12.40;4.93;;;8.90;99.90;;;8.98;100.00;98110.34;4911722;28;20318;-74
2022/11/17 05:49:37;;;;;;;8.27;3.17;;;8.90;99.90;;;9.06;100.00;98123.34;4897238;29;20322;-73
2022/11/17 05:52:04;;;;;;;4.82;1.75;;;9.00;99.90;;;9.07;100.00;98118.94;4891637;29;20299;-74
2022/11/17 05:54:32;;;;;;;8.70;2.90;;;9.00;99.90;;;9.13;100.00;98145.19;4890010;29;20274;-74
2022/11/17 05:57:07;;;;;;;14.00;4.78;;;9.10;99.90;;;9.12;100.00;98125.00;4886824;29;20364;-74
2022/11/17 06:00:03;;;;;;;8.88;3.17;;;9.10;99.90;;;9.13;100.00;98126.75;4889615;29;20278;-73
2022/11/17 06:02:37;;;;;;;7.65;2.58;;;9.10;99.90;;;9.10;100.00;98122.41;4902961;29;20319;-75
2022/11/17 06:05:05;;;;;;;8.18;2.88;;;9.10;99.90;;;9.12;100.00;98119.75;4890043;29;20237;-74
2022/11/17 06:07:33;;;;;;;8.20;2.83;;;9.10;99.90;;;9.10;100.00;98130.31;4909671;29;20262;-75
2022/11/17 06:10:00;;;;;;;7.40;2.83;;;9.10;99.90;;;9.15;100.00;98123.19;4894137;29;20230;-74
2022/11/17 06:12:27;;;;;;;7.35;2.67;;;9.10;99.90;;;9.13;100.00;98118.84;4893630;29;20262;-75
2022/11/17 06:14:54;;;;;;;7.57;2.72;;;9.10;99.90;;;9.08;100.00;98128.59;4892292;29;20291;-75
2022/11/17 06:17:28;;;;;;;9.52;3.45;;;9.10;99.90;;;9.02;100.00;98121.69;4888042;29;20774;-74
2022/11/17 06:20:12;;;;;;;8.05;2.72;;;9.00;99.90;;;9.02;100.00;98120.81;4890773;29;20244;-74
2022/11/17 06:22:39;;;;;;;8.23;3.05;;;9.00;99.90;;;8.97;100.00;98120.91;4889176;29;20306;-74
2022/11/17 06:25:14;;;;;;;7.30;2.65;;;9.00;99.90;;;8.99;100.00;98132.28;4890568;29;20267;-74
2022/11/17 06:27:42;;;;;;;8.63;3.22;;;8.90;99.90;;;9.03;100.00;98133.97;4891454;29;20658;-73
2022/11/17 06:30:09;;;;;;;9.68;3.70;;;9.00;99.90;;;9.05;100.00;98132.16;4898943;29;20235;-73
2022/11/17 06:32:39;;;;;;;8.20;2.95;;;9.00;99.90;;;9.04;100.00;98140.09;4906244;28;20266;-73
2022/11/17 06:35:09;;;;;;;8.50;3.13;;;9.00;99.90;;;9.00;100.00;98126.13;4881069;29;20711;-74
2022/11/17 06:37:36;;;;;;;7.93;3.22;;;9.00;99.90;;;9.03;100.00;98139.22;4900679;29;20329;-74
2022/11/17 06:40:04;;;;;;;7.38;2.75;;;9.00;99.90;;;9.03;100.00;98135.72;4887163;29;20243;-74
2022/11/17 06:45:16;;;;;;;7.20;2.63;;;9.00;99.90;;;9.09;100.00;98141.72;4909809;29;20313;-75
2022/11/17 06:47:43;;;;;;;7.10;2.63;;;9.00;99.90;;;9.10;100.00;98145.25;4907206;29;20279;-74
2022/11/17 06:50:10;;;;;;;8.45;3.00;;;9.10;99.90;;;9.12;100.00;98146.97;4900746;29;20235;-74
2022/11/17 06:52:37;;;;;;;7.53;2.72;;;9.10;99.90;;;9.14;100.00;98147.81;4892512;29;20274;-74
2022/11/17 06:55:05;;;;;;;6.60;2.30;;;9.10;99.90;;;9.18;100.00;98165.28;4909009;29;20235;-74
2022/11/17 06:57:32;;;;;;;5.85;2.33;;;9.10;99.90;;;9.18;100.00;98167.94;4909450;29;20246;-74
2022/11/17 06:59:59;;;;;;;7.80;2.80;;;9.10;99.90;;;9.18;100.00;98160.03;4898658;29;20720;-74
2022/11/17 07:02:26;;;;;;;7.78;2.78;;;9.20;99.90;;;9.22;100.00;98166.97;4886202;29;20235;-74
2022/11/17 07:04:53;;;;;;;7.60;2.85;;;9.20;99.90;;;9.29;100.00;98180.88;4894669;29;20286;-74
2022/11/17 07:07:20;;;;;;;7.25;2.75;;;9.20;99.90;;;9.27;100.00;98175.66;4909546;29;20310;-74
2022/11/17 07:09:47;;;;;;;5.20;1.92;;;9.20;99.90;;;9.30;100.00;98178.22;4892655;29;20227;-75
2022/11/17 07:12:15;;;;;;;7.15;2.67;;;9.30;99.90;;;9.33;100.00;98182.56;4902408;29;20302;-74
2022/11/17 07:14:42;;;;;;;7.70;2.80;;;9.30;99.90;;;9.30;100.00;98179.97;4910067;29;20243;-74
2022/11/17 07:17:09;;;;;;;8.68;3.05;;;9.30;99.90;;;9.29;100.00;98176.47;4893644;29;20700;-74
2022/11/17 07:19:36;;;;;;;10.27;3.42;;;9.30;99.90;;;9.30;100.00;98172.06;4878683;29;20239;-74
2022/11/17 07:22:03;;;;;;;7.57;2.75;;;9.30;99.90;;;9.38;100.00;98183.31;4886279;29;20246;-74
2022/11/17 07:24:30;;;;;;;8.75;3.15;;;9.30;99.90;;;9.45;100.00;98199.88;4901509;29;20231;-74
2022/11/17 07:26:57;;;;;;;8.73;2.88;;;9.40;99.90;;;9.50;100.00;98198.00;4908044;29;20226;-74
2022/11/17 07:29:24;;;;;;;8.07;2.67;;;9.50;99.90;;;9.61;100.00;98210.06;4901808;29;20239;-74
2022/11/17 07:31:51;;;;;;;8.73;2.92;;;9.50;99.90;;;9.67;100.00;98205.53;4908569;29;20234;-74
2022/11/17 07:34:18;;;;;;;5.25;1.92;;;9.60;99.90;;;9.71;100.00;98210.72;4892316;29;20234;-74
2022/11/17 07:36:45;;;;;;;4.65;1.67;;;9.60;99.90;;;9.81;100.00;98224.56;4897068;29;20246;-75
2022/11/17 07:39:14;;;;;;;8.30;2.85;;;9.70;99.90;;;9.93;100.00;98229.56;4897697;29;20720;-74
2022/11/17 07:41:47;;;;;;;7.82;2.85;;;9.80;99.90;;;10.04;100.00;98235.44;4911176;29;20230;-75
2022/11/17 07:44:14;;;;;;;9.63;3.42;;;10.00;99.90;;;10.06;100.00;98224.84;4908349;29;20259;-75
2022/11/17 07:46:41;;;;;;;8.27;2.95;;;10.00;99.90;;;10.12;100.00;98229.97;4911777;29;20230;-74
2022/11/17 07:49:08;;;;;;;6.57;2.33;;;10.00;99.90;;;10.10;100.00;98219.47;4912042;29;20672;-75
2022/11/17 07:51:35;;;;;;;8.75;3.33;;;10.00;99.90;;;10.17;100.00;98218.41;4894895;29;20263;-75
2022/11/17 07:54:02;;;;;;;8.23;2.78;;;10.10;99.90;;;10.23;100.00;98227.97;4888525;29;20239;-75
2022/11/17 07:56:29;;;;;;;8.90;3.08;;;10.10;99.90;;;10.24;100.00;98229.72;4911708;29;20235;-74
2022/11/17 07:58:56;;;;;;;9.10;3.13;;;10.20;99.90;;;10.26;100.00;98231.41;4907586;29;20239;-74
2022/11/17 08:01:26;;;;;;;8.88;3.30;;;10.20;99.90;;;10.39;100.00;98242.53;4890360;29;20247;-74
2022/11/17 08:03:53;;;;;;;6.82;2.40;;;10.30;99.90;;;10.39;100.00;98228.47;4909668;29;20298;-76
2022/11/17 08:06:22;;;;;;;9.70;3.63;;;10.30;99.90;;;10.41;100.00;98227.53;4893904;29;20235;-75
2022/11/17 08:08:50;;;;;;;6.15;2.38;;;10.40;99.90;;;10.41;100.00;98219.63;4912070;29;20236;-73
2022/11/17 08:11:18;;;;;;;7.25;2.63;;;10.40;99.90;;;10.42;100.00;98236.34;4905321;29;20235;-75
2022/11/17 08:13:45;;;;;;;7.55;2.90;;;10.40;99.90;;;10.39;100.00;98205.56;4893189;29;20236;-74
2022/11/17 08:16:13;;;;;;;8.65;3.28;;;10.40;99.90;;;10.40;100.00;98204.69;4907066;29;20228;-76
2022/11/17 08:18:40;;;;;;;9.55;3.63;;;10.40;99.90;;;10.40;100.00;98194.09;4893093;29;20235;-74
2022/11/17 08:21:13;;;;;;;6.25;2.38;;;10.40;99.90;;;10.46;100.00;98198.38;4908973;29;20227;-74
2022/11/17 08:23:49;;;;;;;10.52;3.90;;;10.40;99.90;;;10.55;100.00;98206.91;4901135;29;20719;-73
2022/11/17 08:26:16;;;;;;;9.50;3.63;;;10.40;99.90;;;10.65;100.00;98204.03;4891764;29;20663;-74
2022/11/17 08:28:43;;;;;;;9.15;3.53;;;10.60;99.90;;;10.67;100.00;98204.84;4902087;29;20255;-74
2022/11/17 08:31:11;;;;;;;8.25;3.10;;;10.60;99.90;;;10.69;100.00;98203.03;4919969;29;20231;-74
2022/11/17 08:33:38;;;;;;;8.73;3.28;;;10.70;99.90;;;10.74;100.00;98209.94;4888767;29;20235;-74
2022/11/17 08:36:06;;;;;;;7.25;2.70;;;10.70;99.90;;;10.83;100.00;98214.97;4891106;29;20282;-75
2022/11/17 08:38:33;;;;;;;11.23;4.43;;;10.80;99.90;;;10.83;100.00;98201.75;4883465;29;20314;-75
2022/11/17 08:41:05;;;;;;;7.95;2.92;;;10.80;99.90;;;10.88;100.00;98209.56;4856330;29;20707;-75
2022/11/17 08:43:33;;;;;;;10.32;3.65;;;10.80;99.90;;;10.93;100.00;98217.34;4886355;29;20235;-75
2022/11/17 08:46:01;;;;;;;7.90;3.10;;;10.90;99.90;;;11.02;100.00;98211.81;4889138;29;20230;-76
2022/11/17 08:48:30;;;;;;;8.88;3.15;;;10.90;99.90;;;11.01;100.00;98208.31;4891638;29;20242;-77
2022/11/17 08:51:03;;;;;;;4.93;1.98;;;10.90;99.90;;;11.06;100.00;98209.03;4892554;29;20231;-76
2022/11/17 08:53:31;;;;;;;7.53;2.75;;;11.00;99.90;;;11.07;100.00;98209.91;4890167;29;20227;-76
2022/11/17 08:55:58;;;;;;;8.43;3.25;;;11.00;99.90;;;11.13;100.00;98207.94;4886310;29;20231;-75
2022/11/17 08:58:28;;;;;;;7.55;2.97;;;11.10;99.90;;;11.15;100.00;98205.25;4892538;29;20243;-75
2022/11/17 09:00:55;;;;;;;7.90;3.03;;;11.10;99.90;;;11.27;100.00;98209.31;4896681;29;20318;-76
2022/11/17 09:03:29;;;;;;;9.52;3.40;;;11.10;99.90;;;11.35;100.00;98208.19;4908254;29;20230;-76
2022/11/17 09:05:56;;;;;;;10.23;3.67;;;11.30;99.90;;;11.36;100.00;98207.28;4890253;29;20238;-75
2022/11/17 09:08:24;;;;;;;8.02;2.85;;;11.30;99.90;;;11.39;100.00;98208.97;4909154;28;20227;-75
2022/11/17 09:11:15;;;;;;;7.88;2.95;;;11.30;99.90;;;11.38;100.00;98221.34;4906549;29;20243;-75
2022/11/17 09:13:44;;;;;;;7.10;2.80;;;11.30;99.90;;;11.32;100.00;98228.59;4889617;29;20240;-75
2022/11/17 09:16:12;;;;;;;8.27;2.88;;;11.30;99.90;;;11.65;100.00;98230.22;4909966;29;20237;-75
2022/11/17 09:18:40;;;;;;;8.85;3.15;;;11.60;99.90;;;11.71;100.00;98223.91;4906760;29;20241;-76
2022/11/17 09:21:12;;;;;;;7.55;2.65;;;11.60;99.90;;;11.66;100.00;98226.66;4883604;29;20298;-75
2022/11/17 09:23:39;;;;;;;9.13;3.13;;;11.60;99.90;;;11.66;100.00;98210.78;4906678;29;20231;-74
2022/11/17 09:26:10;;;;;;;8.02;2.75;;;11.60;99.90;;;11.70;100.00;98217.75;4891382;29;20246;-75
2022/11/17 09:28:37;;;;;;;8.98;3.30;;;11.60;99.90;;;11.70;100.00;98211.56;4904300;29;20320;-75
2022/11/17 09:31:11;;;;;;;5.50;1.98;;;11.60;99.90;;;11.54;100.00;98214.66;4886499;29;20230;-74
2022/11/17 09:33:39;;;;;;;10.15;3.90;;;11.50;99.90;;;11.44;100.00;98207.06;4906311;29;20239;-72
2022/11/17 09:36:06;;;;;;;7.78;3.22;;;11.40;99.90;;;11.26;100.00;98184.66;4900873;29;20290;-71
2022/11/17 09:38:38;;;;;;;2.88;1.40;;;11.30;99.90;;;11.25;100.00;98197.94;4892317;29;20242;-72
2022/11/17 09:41:14;;;;;;;5.45;2.15;;;11.20;99.90;;;11.19;100.00;98189.25;4888464;29;20237;-72
2022/11/17 09:44:14;;;;;;;6.88;2.78;;;11.20;99.90;;;11.21;100.00;98202.44;4908139;29;20664;-73
2022/11/17 09:46:54;;;;;;;9.00;3.67;;;11.10;99.90;;;11.29;100.00;98192.50;4904123;29;20309;-74
2022/11/17 09:49:33;;;;;;;6.60;2.53;;;11.20;99.90;;;11.26;100.00;98192.59;4904570;29;20284;-75
2022/11/17 09:52:25;;;;;;;3.10;1.25;;;11.20;99.90;;;11.20;100.00;98179.53;4908537;29;20766;-74
2022/11/17 09:54:56;;;;;;;5.22;2.13;;;11.20;99.90;;;11.20;100.00;98179.53;4885613;29;20239;-75
2022/11/17 09:57:47;;;;;;;9.10;3.58;;;11.20;99.90;;;11.13;100.00;98185.94;4905173;29;20294;-74
2022/11/17 10:00:19;;;;;;;7.55;2.97;;;11.10;99.90;;;11.06;100.00;98184.38;4906485;29;20235;-75
2022/11/17 10:02:47;;;;;;;7.90;2.95;;;11.00;99.90;;;11.15;100.00;98192.03;4891889;29;20290;-75
2022/11/17 10:05:30;;;;;;;9.00;3.33;;;11.10;99.90;;;11.02;100.00;98183.59;4889847;29;20240;-75
2022/11/17 10:08:07;;;;;;;7.75;2.85;;;11.00;99.90;;;11.04;100.00;98210.84;4891273;29;20326;-75
2022/11/17 10:10:45;;;;;;;7.05;2.70;;;11.00;99.90;;;11.02;100.00;98215.31;4891856;29;20234;-75
2022/11/17 10:13:32;;;;;;;8.60;3.35;;;11.00;99.90;;;11.06;100.00;98222.25;4903692;29;20278;-75
2022/11/17 10:16:11;;;;;;;7.18;2.92;;;11.00;99.90;;;11.18;100.00;98235.13;4892677;29;20321;-75
2022/11/17 10:18:38;;;;;;;10.10;3.72;;;11.10;99.90;;;11.26;100.00;98240.22;4905196;29;20652;-75
2022/11/17 10:21:08;;;;;;;8.40;3.30;;;11.20;99.90;;;11.34;100.00;98254.09;4907353;29;20235;-75
2022/11/17 10:23:43;;;;;;;8.52;3.33;;;11.20;99.90;;;11.38;100.00;98266.31;4888596;29;20245;-75
2022/11/17 10:26:14;;;;;;;9.55;3.47;;;11.30;99.90;;;11.44;100.00;98270.56;4888911;29;20235;-74
2022/11/17 10:28:42;;;;;;;4.97;1.98;;;11.30;99.90;;;11.49;100.00;98261.56;4907378;29;20267;-75
2022/11/17 10:31:15;;;;;;;7.97;3.13;;;11.40;99.90;;;11.45;100.00;98254.63;4906467;29;20533;-74
2022/11/17 10:33:49;;;;;;;8.75;3.33;;;11.40;99.90;;;11.48;100.00;98251.03;4907137;29;20230;-74
2022/11/17 10:36:29;;;;;;;8.30;3.30;;;11.40;99.90;;;11.59;100.00;98261.31;4891625;29;20290;-74
2022/11/17 10:38:59;;;;;;;8.50;3.25;;;11.50;99.90;;;11.53;100.00;98246.47;4891249;29;20290;-74
2022/11/17 10:41:44;;;;;;;9.75;3.78;;;11.50;99.90;;;11.52;100.00;98237.66;4888424;29;20258;-75
2022/11/17 10:44:27;;;;;;;7.82;2.88;;;11.40;99.90;;;11.54;100.00;98240.25;4892082;29;20235;-74
2022/11/17 10:47:02;;;;;;;11.70;4.80;;;11.40;99.90;;;11.65;100.00;98258.47;4885937;29;20720;-74
2022/11/17 10:49:34;;;;;;;5.47;2.10;;;11.50;99.90;;;11.80;100.00;98242.19;4908184;29;20241;-75
2022/11/17 10:52:18;;;;;;;9.35;3.30;;;11.70;99.90;;;11.92;100.00;98233.00;4890275;29;20654;-74
2022/11/17 10:54:45;;;;;;;10.00;3.47;;;11.80;99.90;;;12.03;100.00;98246.75;4890302;29;20578;-74
2022/11/17 10:57:25;;;;;;;11.60;4.15;;;11.90;99.90;;;12.20;100.00;98233.84;4906862;29;20233;-74
2022/11/17 10:59:56;;;;;;;9.63;3.42;;;12.00;99.90;;;12.22;100.00;98210.81;4890359;29;20215;-74
2022/11/17 11:02:38;;;;;;;8.95;3.30;;;12.10;99.90;;;12.45;100.00;98220.66;4889169;29;20791;-73
2022/11/17 11:05:18;;;;;;;9.43;3.42;;;12.30;99.90;;;12.59;100.00;98206.91;4902895;29;20322;-74
2022/11/17 11:07:45;;;;;;;8.10;3.30;;;12.40;99.90;;;12.67;100.00;98203.09;4901959;29;20240;-73
2022/11/17 11:10:33;;;;;;;6.97;2.35;;;12.50;99.90;;;12.67;100.00;98197.78;4886323;29;20786;-73
2022/11/17 11:13:20;;;;;;;6.13;2.38;;;12.60;99.90;;;12.54;100.00;98182.34;4905898;29;20227;-73